Providence, Rhode Island
Traffic Map
Current Weather Conditions
Providence, Rhode Island
Overcast
Overcast
66°
Feels Like: 66°
Wind Chill: 66° Ceiling: 1000
Heat Index: 66° Visibility: 10mi
Dew Point: 62° Wind: 18mph
Humidity: 87% Direction: 10° (N)
Pressure: 30.03in Gusts: 0mph
Raw Report DataKPVD 231421Z 01016KT 10SM OVC010 19/17 A3003 RMK AO2 T01890167
Traffic Incident Summary
Active as of:
Severity:
Category:
InformationThere was an issue retrieving the traffic information for this location. Please try a different location or try again shortly.
Advertisements